createdAt,value
2022-10-27T00:00:45.126Z,6.82
2022-10-27T00:02:46.494Z,6.35
2022-10-27T00:04:47.845Z,5.93
2022-10-27T00:06:49.343Z,6.75
2022-10-27T00:08:51.224Z,6.18
2022-10-27T00:10:58.956Z,6.53
2022-10-27T00:13:00.255Z,6.55
2022-10-27T00:15:01.923Z,6.20
2022-10-27T00:17:03.204Z,6.35
2022-10-27T00:19:04.483Z,6.10
2022-10-27T00:21:10.076Z,5.75
2022-10-27T00:23:11.411Z,5.97
2022-10-27T00:25:12.725Z,5.85
2022-10-27T00:27:14.020Z,6.10
2022-10-27T00:29:15.454Z,6.63
2022-10-27T00:31:18.396Z,6.13
2022-10-27T00:33:19.665Z,6.30
2022-10-27T00:35:20.987Z,6.18
2022-10-27T00:37:22.263Z,6.20
2022-10-27T00:39:23.532Z,6.03
2022-10-27T00:41:29.540Z,5.70
2022-10-27T00:43:32.482Z,6.10
2022-10-27T00:45:33.788Z,6.07
2022-10-27T00:47:37.192Z,5.45
2022-10-27T00:49:40.836Z,6.20
2022-10-27T00:51:43.338Z,5.65
2022-10-27T00:53:45.567Z,6.07
2022-10-27T00:55:46.965Z,6.00
2022-10-27T00:57:49.879Z,5.93
2022-10-27T00:59:51.596Z,6.22
2022-10-27T01:01:53.712Z,5.85
2022-10-27T01:03:55.675Z,5.72
2022-10-27T01:05:57.961Z,5.82
2022-10-27T01:08:00.944Z,5.80
2022-10-27T01:10:02.335Z,5.75
2022-10-27T01:12:03.637Z,5.55
2022-10-27T01:14:05.086Z,5.47
2022-10-27T01:16:12.291Z,6.00
2022-10-27T01:18:40.387Z,5.75
2022-10-27T01:20:46.569Z,5.43
2022-10-27T01:22:56.633Z,5.82
2022-10-27T01:25:19.581Z,5.63
2022-10-27T01:27:38.939Z,5.70
2022-10-27T01:29:43.284Z,5.70
2022-10-27T01:34:21.435Z,5.75
2022-10-27T01:36:24.048Z,5.90
2022-10-27T01:38:33.504Z,5.20
2022-10-27T01:40:40.671Z,5.72
2022-10-27T01:42:46.452Z,6.57
2022-10-27T01:44:49.977Z,6.18
2022-10-27T01:46:51.921Z,5.80
2022-10-27T01:48:53.946Z,6.00
2022-10-27T01:51:02.697Z,6.10
2022-10-27T01:53:04.126Z,5.75
2022-10-27T01:55:06.178Z,6.80
2022-10-27T01:57:30.296Z,5.30
2022-10-27T01:59:31.844Z,6.15
2022-10-27T02:01:33.137Z,6.38
2022-10-27T02:03:35.396Z,6.38
2022-10-27T02:05:43.458Z,5.03
2022-10-27T02:08:23.426Z,6.13
2022-10-27T02:10:28.818Z,6.85
2022-10-27T02:12:30.086Z,6.70
2022-10-27T02:14:31.482Z,6.22
2022-10-27T02:16:34.532Z,6.13
2022-10-27T02:18:38.996Z,6.13
2022-10-27T02:20:42.652Z,6.60
2022-10-27T02:22:46.259Z,6.53
2022-10-27T02:24:49.647Z,6.50
2022-10-27T02:26:59.525Z,6.43
2022-10-27T02:29:08.911Z,6.93
2022-10-27T02:31:11.264Z,6.60
2022-10-27T02:33:13.046Z,6.13
2022-10-27T02:35:15.778Z,6.18
2022-10-27T02:37:21.211Z,6.20
2022-10-27T02:39:22.706Z,5.53
2022-10-27T02:41:24.068Z,4.88
2022-10-27T02:43:25.361Z,5.22
2022-10-27T02:45:26.659Z,5.05
2022-10-27T02:47:28.133Z,5.10
2022-10-27T02:49:29.456Z,4.80
2022-10-27T02:51:30.757Z,5.45
2022-10-27T02:53:32.048Z,5.32
2022-10-27T02:55:33.318Z,5.55
2022-10-27T02:57:34.657Z,5.63
2022-10-27T02:59:36.078Z,6.15
2022-10-27T03:01:37.471Z,6.18
2022-10-27T03:03:38.806Z,5.43
2022-10-27T03:05:40.096Z,5.70
2022-10-27T03:07:42.934Z,6.25
2022-10-27T03:09:44.214Z,6.18
2022-10-27T03:11:46.435Z,6.55
2022-10-27T03:13:48.017Z,6.05
2022-10-27T03:15:49.720Z,6.03
2022-10-27T03:17:51.012Z,6.22
2022-10-27T03:19:52.344Z,6.68
2022-10-27T03:21:53.640Z,5.97
2022-10-27T03:23:55.100Z,5.97
2022-10-27T03:26:00.040Z,6.07
2022-10-27T03:28:01.556Z,6.32
2022-10-27T03:30:02.928Z,6.03
2022-10-27T03:32:04.543Z,5.97
2022-10-27T03:34:05.865Z,6.50
2022-10-27T03:36:07.280Z,6.35
2022-10-27T03:38:09.252Z,6.25
2022-10-27T03:40:10.893Z,6.10
2022-10-27T03:42:12.180Z,6.03
2022-10-27T03:44:13.497Z,6.22
2022-10-27T03:46:14.951Z,6.30
2022-10-27T03:48:16.425Z,6.25
2022-10-27T03:50:17.779Z,6.07
2022-10-27T03:52:19.130Z,6.50
2022-10-27T03:54:20.412Z,6.20
2022-10-27T03:56:21.695Z,6.20
2022-10-27T03:58:22.959Z,6.07
2022-10-27T04:00:24.370Z,6.28
2022-10-27T04:02:25.879Z,6.28
2022-10-27T04:04:27.367Z,6.38
2022-10-27T04:06:28.670Z,6.43
2022-10-27T04:08:29.979Z,6.20
2022-10-27T04:10:31.282Z,6.25
2022-10-27T04:12:32.576Z,6.07
2022-10-27T04:14:33.862Z,6.07
2022-10-27T04:16:35.403Z,6.10
2022-10-27T04:18:39.430Z,5.68
2022-10-27T04:20:40.733Z,5.05
2022-10-27T04:22:42.098Z,5.72
2022-10-27T04:24:43.428Z,5.45
2022-10-27T04:26:44.696Z,5.35
2022-10-27T04:28:46.149Z,5.80
2022-10-27T04:30:47.657Z,5.60
2022-10-27T04:32:51.892Z,5.57
2022-10-27T04:34:53.235Z,4.97
2022-10-27T04:36:55.041Z,5.57
2022-10-27T04:38:56.341Z,5.53
2022-10-27T04:40:59.732Z,5.15
2022-10-27T04:43:01.012Z,5.32
2022-10-27T04:45:02.349Z,5.15
2022-10-27T04:47:03.652Z,5.45
2022-10-27T04:49:04.929Z,5.25
2022-10-27T04:51:06.213Z,5.80
2022-10-27T04:53:07.477Z,5.88
2022-10-27T04:55:09.267Z,6.07
2022-10-27T04:57:10.591Z,5.95
2022-10-27T04:59:11.897Z,6.40
2022-10-27T05:01:13.930Z,5.75
2022-10-27T05:03:15.357Z,6.00
2022-10-27T05:05:16.638Z,6.05
2022-10-27T05:07:18.259Z,5.97
2022-10-27T05:09:19.587Z,5.70
2022-10-27T05:11:20.876Z,6.05
2022-10-27T05:13:22.388Z,5.72
2022-10-27T05:15:24.026Z,5.60
2022-10-27T05:17:25.429Z,5.97
2022-10-27T05:19:26.993Z,6.10
2022-10-27T05:21:28.253Z,5.80
2022-10-27T05:23:29.544Z,6.15
2022-10-27T05:25:30.972Z,6.22
2022-10-27T05:27:32.410Z,5.93
2022-10-27T05:29:33.726Z,5.72
2022-10-27T05:31:37.487Z,6.00
2022-10-27T05:33:38.765Z,5.97
2022-10-27T05:35:40.200Z,6.68
2022-10-27T05:37:47.391Z,6.40
2022-10-27T05:39:48.848Z,6.70
2022-10-27T05:41:50.128Z,5.93
2022-10-27T05:43:51.400Z,5.90
2022-10-27T05:45:52.766Z,6.07
2022-10-27T05:47:58.529Z,6.03
2022-10-27T05:49:59.804Z,5.65
2022-10-27T05:52:01.189Z,6.03
2022-10-27T05:54:02.515Z,5.88
2022-10-27T05:56:03.996Z,6.07
2022-10-27T05:58:06.221Z,5.85
2022-10-27T06:00:07.855Z,6.30
2022-10-27T06:02:09.735Z,6.55
2022-10-27T06:04:11.068Z,6.30
2022-10-27T06:06:12.355Z,7.20
2022-10-27T06:08:13.786Z,5.82
2022-10-27T06:10:15.139Z,6.07
2022-10-27T06:12:16.462Z,6.20
2022-10-27T06:14:17.763Z,5.90
2022-10-27T06:16:20.034Z,5.70
2022-10-27T06:18:21.349Z,6.40
2022-10-27T06:20:23.035Z,6.80
2022-10-27T06:22:24.563Z,6.03
2022-10-27T06:24:26.054Z,6.28
2022-10-27T06:26:27.350Z,5.63
2022-10-27T06:28:28.804Z,6.20
2022-10-27T06:30:30.118Z,6.10
2022-10-27T06:32:31.469Z,6.15
2022-10-27T06:34:32.743Z,6.10
2022-10-27T06:36:34.038Z,6.47
2022-10-27T06:38:35.340Z,5.78
2022-10-27T06:40:36.740Z,5.68
2022-10-27T06:42:48.935Z,5.20
2022-10-27T06:44:56.791Z,5.13
2022-10-27T06:46:58.192Z,5.57
2022-10-27T06:48:59.607Z,5.20
2022-10-27T06:51:00.928Z,5.95
2022-10-27T06:53:02.378Z,4.60
2022-10-27T06:55:03.922Z,5.43
2022-10-27T06:57:06.421Z,4.80
2022-10-27T06:59:07.732Z,5.00
2022-10-27T07:01:09.124Z,4.90
2022-10-27T07:05:11.994Z,4.85
2022-10-27T07:07:13.405Z,5.07
2022-10-27T07:09:14.837Z,5.63
2022-10-27T07:11:16.139Z,4.65
2022-10-27T07:13:17.513Z,5.35
2022-10-27T07:15:18.997Z,5.25
2022-10-27T07:19:22.844Z,6.40
2022-10-27T07:21:27.132Z,5.75
2022-10-27T07:23:28.433Z,5.65
2022-10-27T07:25:30.153Z,5.10
2022-10-27T07:27:31.575Z,5.97
2022-10-27T07:29:32.897Z,5.72
2022-10-27T07:31:34.259Z,5.35
2022-10-27T07:33:35.809Z,5.45
2022-10-27T07:35:37.873Z,5.47
2022-10-27T07:37:42.716Z,5.40
2022-10-27T07:39:44.021Z,5.63
2022-10-27T07:41:45.372Z,5.60
2022-10-27T07:43:49.021Z,5.30
2022-10-27T07:45:50.316Z,5.60
2022-10-27T07:47:53.085Z,4.28
2022-10-27T07:49:54.515Z,5.68
2022-10-27T07:51:55.797Z,5.43
2022-10-27T07:53:58.188Z,6.10
2022-10-27T07:55:59.693Z,5.40
2022-10-27T07:58:02.693Z,9.82
2022-10-27T08:00:04.945Z,7.13
2022-10-27T08:02:08.102Z,7.72
2022-10-27T08:04:09.528Z,4.10
2022-10-27T08:06:10.847Z,5.65
2022-10-27T08:08:12.526Z,5.28
2022-10-27T08:10:14.245Z,4.80
2022-10-27T08:12:16.097Z,4.28
2022-10-27T08:14:17.356Z,4.88
2022-10-27T08:16:18.744Z,4.15
2022-10-27T08:18:20.277Z,5.60
2022-10-27T08:20:22.383Z,5.47
2022-10-27T08:22:23.728Z,5.15
2022-10-27T08:24:25.217Z,5.55
2022-10-27T08:26:26.929Z,5.63
2022-10-27T08:28:28.243Z,5.93
2022-10-27T08:30:34.065Z,5.78
2022-10-27T08:32:36.476Z,4.55
2022-10-27T08:34:37.867Z,4.32
2022-10-27T08:36:39.170Z,3.88
2022-10-27T08:38:40.552Z,3.78
2022-10-27T08:43:06.850Z,3.63
2022-10-27T08:45:11.889Z,3.90
2022-10-27T08:47:22.801Z,4.10
2022-10-27T08:49:34.760Z,4.18
2022-10-27T08:51:36.742Z,3.83
2022-10-27T08:53:39.722Z,4.20
2022-10-27T08:55:52.443Z,4.65
2022-10-27T08:57:59.222Z,4.35
2022-10-27T09:00:00.929Z,4.55
2022-10-27T09:02:08.881Z,2.70
2022-10-27T09:04:23.713Z,3.70
2022-10-27T09:06:27.470Z,4.68
2022-10-27T09:08:38.064Z,3.67
2022-10-27T09:10:43.753Z,4.18
2022-10-27T09:12:59.437Z,4.07
2022-10-27T09:15:20.190Z,3.40
2022-10-27T09:19:24.293Z,4.28
2022-10-27T09:21:27.290Z,4.18
2022-10-27T09:23:36.076Z,4.20
2022-10-27T09:25:39.604Z,3.63
2022-10-27T09:27:42.550Z,4.45
2022-10-27T09:29:45.340Z,3.70
2022-10-27T09:31:49.962Z,3.33
2022-10-27T09:33:56.957Z,3.42
2022-10-27T09:35:58.498Z,3.95
2022-10-27T09:38:00.013Z,3.83
2022-10-27T09:40:02.929Z,3.17
2022-10-27T09:42:04.306Z,2.80
2022-10-27T09:44:11.521Z,3.45
2022-10-27T09:46:23.094Z,3.85
2022-10-27T09:48:25.717Z,3.80
2022-10-27T09:50:36.719Z,3.10
2022-10-27T09:52:41.135Z,4.03
2022-10-27T09:54:54.893Z,2.95
2022-10-27T09:57:02.865Z,3.70
2022-10-27T09:59:05.517Z,3.25
2022-10-27T10:01:07.178Z,4.03
2022-10-27T10:03:20.026Z,3.90
2022-10-27T10:05:21.313Z,3.40
2022-10-27T10:07:30.972Z,3.55
2022-10-27T10:09:33.791Z,3.47
2022-10-27T10:11:35.190Z,3.03
2022-10-27T10:13:41.511Z,3.92
2022-10-27T10:15:44.025Z,3.63
2022-10-27T10:17:53.075Z,3.63
2022-10-27T10:19:55.419Z,3.40
2022-10-27T10:21:57.997Z,3.20
2022-10-27T10:23:59.457Z,3.40
2022-10-27T10:26:01.819Z,3.53
2022-10-27T10:28:04.601Z,2.97
2022-10-27T10:30:18.818Z,2.60
2022-10-27T10:32:24.256Z,2.55
2022-10-27T10:34:32.564Z,2.38
2022-10-27T10:36:35.176Z,2.88
2022-10-27T10:38:39.507Z,2.72
2022-10-27T10:40:40.827Z,3.35
2022-10-27T10:42:45.398Z,2.80
2022-10-27T10:44:50.720Z,2.50
2022-10-27T10:46:54.704Z,2.63
2022-10-27T10:48:57.217Z,3.10
2022-10-27T10:50:59.175Z,2.55
2022-10-27T10:53:00.594Z,2.80
2022-10-27T10:55:15.873Z,3.03
2022-10-27T10:57:37.149Z,2.72
2022-10-27T10:59:44.169Z,3.00
2022-10-27T11:01:49.453Z,2.70
2022-10-27T11:03:53.215Z,2.95
2022-10-27T11:05:56.590Z,2.38
2022-10-27T11:07:58.535Z,3.10
2022-10-27T11:10:00.577Z,3.33
2022-10-27T11:12:03.620Z,3.08
2022-10-27T11:14:07.603Z,3.22
2022-10-27T11:16:10.011Z,2.97
2022-10-27T11:18:28.190Z,3.13
2022-10-27T11:20:31.357Z,2.53
2022-10-27T11:22:33.723Z,2.20
2022-10-27T11:24:40.906Z,3.05
2022-10-27T11:26:49.663Z,2.45
2022-10-27T11:29:09.695Z,2.45
2022-10-27T11:31:20.679Z,2.15
2022-10-27T11:33:21.976Z,2.63
2022-10-27T11:35:26.815Z,2.40
2022-10-27T11:37:46.512Z,2.42
2022-10-27T11:39:51.177Z,2.47
2022-10-27T11:42:05.683Z,2.65
2022-10-27T11:44:13.386Z,2.50
2022-10-27T11:46:20.765Z,4.72
2022-10-27T11:48:22.057Z,2.17
2022-10-27T11:50:41.946Z,2.92
2022-10-27T11:52:45.233Z,3.30
2022-10-27T11:54:47.397Z,2.90
2022-10-27T11:56:48.860Z,2.60
2022-10-27T11:58:50.178Z,2.70
2022-10-27T12:01:04.199Z,2.25
2022-10-27T12:03:21.052Z,2.53
2022-10-27T12:05:28.011Z,3.00
2022-10-27T12:07:40.639Z,2.42
2022-10-27T12:09:49.496Z,2.70
2022-10-27T12:11:53.870Z,3.03
2022-10-27T12:14:03.462Z,2.20
2022-10-27T12:16:11.259Z,3.08
2022-10-27T12:18:30.991Z,1.92
2022-10-27T12:20:43.010Z,3.10
2022-10-27T12:22:56.683Z,3.30
2022-10-27T12:25:07.622Z,3.42
2022-10-27T12:27:15.308Z,3.17
2022-10-27T12:29:17.023Z,2.97
2022-10-27T12:31:22.306Z,5.00
2022-10-27T12:33:29.009Z,3.90
2022-10-27T12:35:40.345Z,2.80
2022-10-27T12:37:50.430Z,2.70
2022-10-27T12:40:21.941Z,2.70
2022-10-27T12:42:47.154Z,2.80
2022-10-27T12:44:51.446Z,2.50
2022-10-27T12:47:11.212Z,2.85
2022-10-27T12:49:26.986Z,3.00
2022-10-27T12:51:37.032Z,2.88
2022-10-27T12:53:41.432Z,2.47
2022-10-27T12:55:42.913Z,3.30
2022-10-27T12:57:50.393Z,3.75
2022-10-27T12:59:59.328Z,2.95
2022-10-27T13:02:02.290Z,3.53
2022-10-27T13:04:09.936Z,5.93
2022-10-27T13:06:30.122Z,3.38
2022-10-27T13:08:50.291Z,3.67
2022-10-27T13:10:56.946Z,3.15
2022-10-27T13:13:17.198Z,3.38
2022-10-27T13:15:27.486Z,3.70
2022-10-27T13:17:31.969Z,3.53
2022-10-27T13:19:33.382Z,3.53
2022-10-27T13:21:34.744Z,3.42
2022-10-27T13:23:45.229Z,3.58
2022-10-27T13:25:54.806Z,3.15
2022-10-27T13:28:18.526Z,2.92
2022-10-27T13:30:23.717Z,2.97
2022-10-27T13:32:29.445Z,3.80
2022-10-27T13:34:30.778Z,2.97
2022-10-27T13:36:32.201Z,2.95
2022-10-27T13:38:33.685Z,3.42
2022-10-27T13:40:41.759Z,3.95
2022-10-27T13:44:44.981Z,3.55
2022-10-27T13:47:06.666Z,3.92
2022-10-27T13:49:08.062Z,3.83
2022-10-27T13:51:39.843Z,3.90
2022-10-27T13:53:49.035Z,3.92
2022-10-27T13:55:53.731Z,3.75
2022-10-27T13:58:02.534Z,3.50
2022-10-27T14:00:09.988Z,4.00
2022-10-27T14:02:20.049Z,3.92
2022-10-27T14:04:30.215Z,3.63
2022-10-27T14:06:39.075Z,3.97
2022-10-27T14:08:46.211Z,3.33
2022-10-27T14:10:47.954Z,3.22
2022-10-27T14:12:51.188Z,4.00
2022-10-27T14:15:02.858Z,3.90
2022-10-27T14:17:15.590Z,3.70
2022-10-27T14:19:21.849Z,3.95
2022-10-27T14:21:24.151Z,3.30
2022-10-27T14:23:27.452Z,3.08
2022-10-27T14:25:29.752Z,3.42
2022-10-27T14:27:33.664Z,3.38
2022-10-27T14:29:38.533Z,3.50
2022-10-27T14:31:42.679Z,3.70
2022-10-27T14:33:44.111Z,3.15
2022-10-27T14:35:45.469Z,3.53
2022-10-27T14:37:46.987Z,4.03
2022-10-27T14:39:49.728Z,3.70
2022-10-27T14:41:53.087Z,4.13
2022-10-27T14:43:56.761Z,3.58
2022-10-27T14:45:59.871Z,3.88
2022-10-27T14:48:03.105Z,3.90
2022-10-27T14:50:06.923Z,3.83
2022-10-27T14:52:09.684Z,4.18
2022-10-27T14:54:13.725Z,4.15
2022-10-27T14:56:19.984Z,4.30
2022-10-27T14:58:22.632Z,3.95
2022-10-27T15:00:26.888Z,3.58
2022-10-27T15:02:28.723Z,4.30
2022-10-27T15:04:30.265Z,4.85
2022-10-27T15:06:32.152Z,4.38
2022-10-27T15:08:38.553Z,4.35
2022-10-27T15:10:44.039Z,4.90
2022-10-27T15:12:53.077Z,4.30
2022-10-27T15:14:55.167Z,4.85
2022-10-27T15:16:56.582Z,4.35
2022-10-27T15:18:57.974Z,4.05
2022-10-27T15:21:00.350Z,4.53
2022-10-27T15:23:02.035Z,5.63
2022-10-27T15:25:04.146Z,4.65
2022-10-27T15:27:05.549Z,4.00
2022-10-27T15:29:12.627Z,3.97
2022-10-27T15:31:14.131Z,4.82
2022-10-27T15:33:27.648Z,4.72
2022-10-27T15:35:30.886Z,5.43
2022-10-27T15:37:34.001Z,5.07
2022-10-27T15:39:35.446Z,4.78
2022-10-27T15:41:46.585Z,4.30
2022-10-27T15:43:49.280Z,4.40
2022-10-27T15:45:53.849Z,5.90
2022-10-27T15:47:56.091Z,4.90
2022-10-27T15:49:57.527Z,4.35
2022-10-27T15:52:02.947Z,4.70
2022-10-27T15:54:04.472Z,4.80
2022-10-27T15:56:07.288Z,4.88
2022-10-27T15:58:30.610Z,5.00
2022-10-27T16:00:32.168Z,5.38
2022-10-27T16:02:34.915Z,4.72
2022-10-27T16:04:37.973Z,4.45
2022-10-27T16:06:41.675Z,4.72
2022-10-27T16:08:43.304Z,5.07
2022-10-27T16:10:47.704Z,5.22
2022-10-27T16:12:49.422Z,5.03
2022-10-27T16:14:55.172Z,5.20
2022-10-27T16:16:59.005Z,5.07
2022-10-27T16:19:00.703Z,4.55
2022-10-27T16:21:02.241Z,4.07
2022-10-27T16:23:03.750Z,4.45
2022-10-27T16:25:11.253Z,4.85
2022-10-27T16:27:17.980Z,5.93
2022-10-27T16:29:20.804Z,4.57
2022-10-27T16:31:22.234Z,4.40
2022-10-27T16:33:26.619Z,4.43
2022-10-27T16:35:29.175Z,4.97
2022-10-27T16:37:40.144Z,4.00
2022-10-27T16:39:41.560Z,3.95
2022-10-27T16:41:43.313Z,3.80
2022-10-27T16:43:47.865Z,3.95
2022-10-27T16:45:49.284Z,4.53
2022-10-27T16:47:51.425Z,4.47
2022-10-27T16:49:55.273Z,4.18
2022-10-27T16:51:56.728Z,4.28
2022-10-27T16:53:58.184Z,4.47
2022-10-27T16:56:00.458Z,4.50
2022-10-27T16:58:04.232Z,4.20
2022-10-27T17:00:06.449Z,4.63
2022-10-27T17:02:09.665Z,4.97
2022-10-27T17:04:11.006Z,5.40
2022-10-27T17:06:16.828Z,4.82
2022-10-27T17:08:18.487Z,4.88
2022-10-27T17:10:19.835Z,4.55
2022-10-27T17:12:21.395Z,5.00
2022-10-27T17:14:23.314Z,4.57
2022-10-27T17:16:24.690Z,4.35
2022-10-27T17:18:26.039Z,4.00
2022-10-27T17:20:27.535Z,4.63
2022-10-27T17:22:29.056Z,4.05
2022-10-27T17:24:30.455Z,4.97
2022-10-27T17:26:32.330Z,4.38
2022-10-27T17:28:34.152Z,4.40
2022-10-27T17:30:35.672Z,4.53
2022-10-27T17:32:37.191Z,4.25
2022-10-27T17:34:38.572Z,4.20
2022-10-27T17:36:41.318Z,3.88
2022-10-27T17:38:44.984Z,4.15
2022-10-27T17:40:56.063Z,4.35
2022-10-27T17:42:57.491Z,3.78
2022-10-27T17:44:59.808Z,3.65
2022-10-27T17:47:01.181Z,3.85
2022-10-27T17:49:02.503Z,4.28
2022-10-27T17:51:05.265Z,3.85
2022-10-27T17:53:06.545Z,4.00
2022-10-27T17:55:08.640Z,4.00
2022-10-27T17:57:10.207Z,3.75
2022-10-27T17:59:15.036Z,3.30
2022-10-27T18:01:20.437Z,3.78
2022-10-27T18:03:23.816Z,3.92
2022-10-27T18:05:28.749Z,4.20
2022-10-27T18:07:31.665Z,4.20
2022-10-27T18:09:33.100Z,4.30
2022-10-27T18:11:35.674Z,4.30
2022-10-27T18:13:39.702Z,3.92
2022-10-27T18:15:40.968Z,3.90
2022-10-27T18:17:42.304Z,4.05
2022-10-27T18:19:44.411Z,3.83
2022-10-27T18:21:46.724Z,4.30
2022-10-27T18:23:49.962Z,4.38
2022-10-27T18:25:51.328Z,4.30
2022-10-27T18:27:52.680Z,4.13
2022-10-27T18:29:53.995Z,4.20
2022-10-27T18:31:55.401Z,4.40
2022-10-27T18:33:56.852Z,5.28
2022-10-27T18:36:05.400Z,5.60
2022-10-27T18:38:06.777Z,4.60
2022-10-27T18:40:08.322Z,3.90
2022-10-27T18:42:09.673Z,4.10
2022-10-27T18:44:11.004Z,4.25
2022-10-27T18:46:13.206Z,4.25
2022-10-27T18:48:14.526Z,4.72
2022-10-27T18:50:15.837Z,4.68
2022-10-27T18:52:17.209Z,4.30
2022-10-27T18:54:18.533Z,4.70
2022-10-27T18:56:19.819Z,4.60
2022-10-27T18:58:21.249Z,5.25
2022-10-27T19:00:22.873Z,5.07
2022-10-27T19:02:24.327Z,4.85
2022-10-27T19:04:25.674Z,4.15
2022-10-27T19:06:27.280Z,4.57
2022-10-27T19:08:28.997Z,4.63
2022-10-27T19:10:30.391Z,4.35
2022-10-27T19:12:31.705Z,4.40
2022-10-27T19:14:32.994Z,5.03
2022-10-27T19:16:34.365Z,4.20
2022-10-27T19:18:35.649Z,4.47
2022-10-27T19:20:37.085Z,4.40
2022-10-27T19:22:38.381Z,4.80
2022-10-27T19:24:39.699Z,4.97
2022-10-27T19:26:41.128Z,4.80
2022-10-27T19:28:43.072Z,4.07
2022-10-27T19:30:52.194Z,4.05
2022-10-27T19:32:53.955Z,3.90
2022-10-27T19:34:55.712Z,4.28
2022-10-27T19:36:57.060Z,4.10
2022-10-27T19:38:59.487Z,4.10
2022-10-27T19:41:00.999Z,3.97
2022-10-27T19:43:02.303Z,4.28
2022-10-27T19:45:06.617Z,4.00
2022-10-27T19:47:07.926Z,6.13
2022-10-27T19:49:13.912Z,4.40
2022-10-27T19:51:19.296Z,6.25
2022-10-27T19:53:20.604Z,4.93
2022-10-27T19:55:21.916Z,6.07
2022-10-27T19:57:23.260Z,4.72
2022-10-27T19:59:24.675Z,6.40
2022-10-27T20:01:27.591Z,7.07
2022-10-27T20:03:28.941Z,4.20
2022-10-27T20:05:31.330Z,12.13
2022-10-27T20:07:34.291Z,6.25
2022-10-27T20:09:35.741Z,7.13
2022-10-27T20:11:37.018Z,5.70
2022-10-27T20:13:38.410Z,4.97
2022-10-27T20:15:39.841Z,5.63
2022-10-27T20:17:41.291Z,4.55
2022-10-27T20:19:42.568Z,5.32
2022-10-27T20:21:44.310Z,5.53
2022-10-27T20:23:46.020Z,5.90
2022-10-27T20:26:16.943Z,6.68
2022-10-27T20:28:21.228Z,5.45
2022-10-27T20:30:22.537Z,8.25
2022-10-27T20:32:23.932Z,5.93
2022-10-27T20:34:25.500Z,3.85
2022-10-27T20:36:26.976Z,6.32
2022-10-27T20:38:28.812Z,5.63
2022-10-27T20:40:30.138Z,4.72
2022-10-27T20:42:34.553Z,5.53
2022-10-27T20:44:35.846Z,5.82
2022-10-27T20:46:37.254Z,6.03
2022-10-27T20:48:40.672Z,5.95
2022-10-27T20:50:42.113Z,8.30
2022-10-27T20:52:43.416Z,6.05
2022-10-27T20:54:44.729Z,5.53
2022-10-27T20:56:48.996Z,5.40
2022-10-27T20:58:50.728Z,5.03
2022-10-27T21:00:55.061Z,4.40
2022-10-27T21:02:56.435Z,4.88
2022-10-27T21:04:57.804Z,4.43
2022-10-27T21:06:59.338Z,5.55
2022-10-27T21:09:02.643Z,4.90
2022-10-27T21:11:04.197Z,4.43
2022-10-27T21:13:05.455Z,4.85
2022-10-27T21:15:06.935Z,4.78
2022-10-27T21:17:08.500Z,4.07
2022-10-27T21:19:10.215Z,7.07
2022-10-27T21:21:14.898Z,5.45
2022-10-27T21:23:16.261Z,4.93
2022-10-27T21:25:17.601Z,5.57
2022-10-27T21:27:20.245Z,6.28
2022-10-27T21:29:21.541Z,6.03
2022-10-27T21:31:25.070Z,5.18
2022-10-27T21:33:27.121Z,5.47
2022-10-27T21:35:28.550Z,5.78
2022-10-27T21:37:29.877Z,5.22
2022-10-27T21:39:31.152Z,5.68
2022-10-27T21:41:32.431Z,5.10
2022-10-27T21:43:44.061Z,6.05
2022-10-27T21:45:45.344Z,5.85
2022-10-27T21:47:49.287Z,5.35
2022-10-27T21:49:50.754Z,5.82
2022-10-27T21:51:52.920Z,5.38
2022-10-27T21:54:00.650Z,5.18
2022-10-27T21:56:05.023Z,6.18
2022-10-27T21:58:06.311Z,5.15
2022-10-27T22:00:07.987Z,4.72
2022-10-27T22:02:09.350Z,6.10
2022-10-27T22:04:10.831Z,6.32
2022-10-27T22:06:31.565Z,6.68
2022-10-27T22:10:34.241Z,6.07
2022-10-27T22:12:35.635Z,5.43
2022-10-27T22:14:37.064Z,5.00
2022-10-27T22:16:38.647Z,5.10
2022-10-27T22:18:41.786Z,5.70
2022-10-27T22:20:43.160Z,5.22
2022-10-27T22:22:44.596Z,5.07
2022-10-27T22:24:45.927Z,5.47
2022-10-27T22:26:47.273Z,4.95
2022-10-27T22:28:49.127Z,4.82
2022-10-27T22:30:50.443Z,4.72
2022-10-27T22:32:53.380Z,5.47
2022-10-27T22:34:55.411Z,5.03
2022-10-27T22:36:56.756Z,5.45
2022-10-27T22:38:59.065Z,5.22
2022-10-27T22:41:10.658Z,5.10
2022-10-27T22:43:12.108Z,5.07
2022-10-27T22:45:13.478Z,4.90
2022-10-27T22:49:19.464Z,5.03
2022-10-27T22:51:21.853Z,5.10
2022-10-27T22:53:23.214Z,5.15
2022-10-27T22:55:24.554Z,5.70
2022-10-27T22:57:25.867Z,5.13
2022-10-27T22:59:27.229Z,5.03
2022-10-27T23:01:30.671Z,5.13
2022-10-27T23:03:32.252Z,5.43
2022-10-27T23:05:33.596Z,5.97
2022-10-27T23:07:34.941Z,5.97
2022-10-27T23:09:36.365Z,5.80
2022-10-27T23:11:37.711Z,5.47
2022-10-27T23:13:38.995Z,5.00
2022-10-27T23:15:40.324Z,4.28
2022-10-27T23:17:41.624Z,4.28
2022-10-27T23:19:43.091Z,4.78
2022-10-27T23:21:44.667Z,4.88
2022-10-27T23:23:46.117Z,4.35
2022-10-27T23:25:49.528Z,5.20
2022-10-27T23:27:52.974Z,4.60
2022-10-27T23:29:54.572Z,4.75
2022-10-27T23:31:55.897Z,4.72
2022-10-27T23:33:59.843Z,4.93
2022-10-27T23:36:01.900Z,5.30
2022-10-27T23:38:03.614Z,5.18
2022-10-27T23:40:05.246Z,3.72
2022-10-27T23:42:06.639Z,4.35
2022-10-27T23:44:08.010Z,4.28
2022-10-27T23:46:10.051Z,4.40
2022-10-27T23:48:11.501Z,4.25
2022-10-27T23:50:12.823Z,4.60
2022-10-27T23:52:14.121Z,4.40
2022-10-27T23:54:15.399Z,4.20
2022-10-27T23:56:16.859Z,4.63
2022-10-27T23:58:18.199Z,4.75
